Погода Пиренополисна 2 недели

Гояс, Бразилия

17 - 30 июля
  • 17июля
    Сегодня
    +15°
    +28°
    Практически безоблачно
    ВремяПогодаТемператураВлажностьДавлениеВетер, м/сВероятность осадков
    00:00Ясно и безоблачно+18°C48 %701 мм4.1 м/с5 %
    03:00Ясно и безоблачно+17°C56 %701 мм4.2 м/с5 %
    06:00Ясно и безоблачно+16°C58 %701 мм4.1 м/с5 %
    09:00Ясно и безоблачно+22°C42 %704 мм4.1 м/с5 %
    12:00Ясно и безоблачно+26°C29 %703 мм1.6 м/с5 %
    15:00Практически безоблачно+28°C27 %702 мм1.8 м/с5 %
    18:00Облачно с прояснениями+25°C33 %701 мм2.4 м/с5 %
    21:00Небольшая облачность+21°C35 %701 мм3.0 м/с5 %
  • 18июля
    Четверг
    +16°
    +29°
    Небольшая облачность
    ВремяПогодаТемператураВлажностьДавлениеВетер, м/сВероятность осадков
    00:00Ясно и безоблачно+18°C47 %700 мм3.6 м/с5 %
    03:00Небольшая облачность+16°C53 %699 мм3.6 м/с5 %
    06:00Облачно с прояснениями+16°C55 %699 мм3.3 м/с5 %
    09:00Облачно с прояснениями+22°C40 %702 мм2.8 м/с5 %
    12:00Небольшая облачность+26°C29 %702 мм2.5 м/с5 %
    15:00Небольшая облачность+29°C27 %700 мм0.7 м/с5 %
    18:00Ясно и безоблачно+26°C32 %700 мм1.6 м/с5 %
    21:00Ясно и безоблачно+21°C39 %701 мм3.3 м/с5 %
  • 19июля
    Пятница
    +17°
    +30°
    Ясно и безоблачно
    ВремяПогодаТемператураВлажностьДавлениеВетер, м/сВероятность осадков
    00:00Ясно и безоблачно+20°C44 %701 мм3.9 м/с5 %
    03:00Ясно и безоблачно+17°C51 %700 мм3.9 м/с5 %
    06:00Ясно и безоблачно+17°C53 %700 мм3.7 м/с5 %
    09:00Ясно и безоблачно+24°C40 %703 мм3.6 м/с5 %
    12:00Ясно и безоблачно+28°C31 %703 мм2.3 м/с5 %
    15:00Ясно и безоблачно+30°C27 %701 мм1.8 м/с5 %
    18:00Ясно и безоблачно+27°C33 %701 мм2.5 м/с5 %
    21:00Ясно и безоблачно+22°C40 %702 мм4.0 м/с5 %
  • 20июля
    Суббота
    +16°
    +30°
    Ясно и безоблачно
    ВремяПогодаТемператураВлажностьДавлениеВетер, м/сВероятность осадков
    00:00Ясно и безоблачно+19°C44 %701 мм4.6 м/с5 %
    03:00Ясно и безоблачно+18°C47 %700 мм4.8 м/с5 %
    06:00Ясно и безоблачно+18°C46 %700 мм4.4 м/с5 %
    09:00Ясно и безоблачно+22°C40 %702 мм4.3 м/с5 %
    12:00Ясно и безоблачно+27°C27 %702 мм3.5 м/с5 %
    15:00Ясно и безоблачно+29°C22 %700 мм2.4 м/с5 %
    18:00Ясно и безоблачно+26°C31 %700 мм2.2 м/с5 %
    21:00Ясно и безоблачно+21°C37 %700 мм3.8 м/с5 %
  • 21июля
    Воскресенье
    +15°
    +29°
    Ясно и безоблачно
    ВремяПогодаТемператураВлажностьДавлениеВетер, м/сВероятность осадков
    00:00Ясно и безоблачно+20°C42 %700 мм4.4 м/с5 %
    03:00Ясно и безоблачно+17°C45 %699 мм4.1 м/с5 %
    06:00Ясно и безоблачно+16°C49 %699 мм3.8 м/с5 %
    09:00Ясно и безоблачно+23°C41 %702 мм4.1 м/с5 %
    12:00Ясно и безоблачно+27°C29 %701 мм3.2 м/с5 %
    15:00Ясно и безоблачно+29°C26 %700 мм2.2 м/с5 %
    18:00Ясно и безоблачно+25°C37 %699 мм1.5 м/с5 %
    21:00Ясно и безоблачно+21°C36 %700 мм3.4 м/с5 %
Мы используем cookies
Соглашаюсь